Decoded Metar for KTTA (SANFORD in NC, USA) (IATA:TTA) | Meteo·Mobile Aviation Weather
aviador You're here:

KTTA Decoded Metar

SANFORD in NC, USA
Report Time2019-01-19 01:25:00
UTC Time2019-01-19 01:49:36
Flight Rules vfr VFR
WindCalm
Visibility9999 m
Phenomena:N/A
Clouds:N/A
CeilingNone
Temp05°C (ISA -10)
Dew Point05°C (100% RH)
AAT3.9°C
QNH1020 hPa
Density Alt-1,024 ft
Elevation246 ft
Report Wrong Elevation
Raw Report
METAR KTTA 190125Z AUTO 00000KT 7SM CLR 05/05 A3012 RMK AO2 T00480048=

Extra information for KTTA:More info

Metar Taf Metar & Taf Last 4 Metars F.Rules Stats Wind Profile Meteogram Temp Stats Airport Information Weather charts Add Link Nearby VenuesMetar ALERT Operation Metar Decoded Social comments

AIRNAV info for KTTA